sensor_id;sensor_type;location;lat;lon;timestamp;temperature;humidity
18141;DHT22;9196;49.194;12.526;2022-08-21T00:00:43;18.50;99.90
18141;DHT22;9196;49.194;12.526;2022-08-21T00:03:11;18.50;99.90
18141;DHT22;9196;49.194;12.526;2022-08-21T00:05:42;18.40;99.90
18141;DHT22;9196;49.194;12.526;2022-08-21T00:08:10;18.40;99.90
18141;DHT22;9196;49.194;12.526;2022-08-21T00:10:36;18.40;99.90
18141;DHT22;9196;49.194;12.526;2022-08-21T00:13:04;18.30;99.90
18141;DHT22;9196;49.194;12.526;2022-08-21T00:15:34;18.30;99.90
18141;DHT22;9196;49.194;12.526;2022-08-21T00:18:03;18.40;99.90
18141;DHT22;9196;49.194;12.526;2022-08-21T00:20:30;18.40;99.90
18141;DHT22;9196;49.194;12.526;2022-08-21T00:22:57;18.50;99.90
18141;DHT22;9196;49.194;12.526;2022-08-21T00:25:24;18.40;99.90
18141;DHT22;9196;49.194;12.526;2022-08-21T00:27:51;18.40;99.90
18141;DHT22;9196;49.194;12.526;2022-08-21T00:30:19;18.40;99.90
18141;DHT22;9196;49.194;12.526;2022-08-21T00:32:47;18.40;99.90
18141;DHT22;9196;49.194;12.526;2022-08-21T00:35:16;18.40;99.90
18141;DHT22;9196;49.194;12.526;2022-08-21T00:37:43;18.30;99.90
18141;DHT22;9196;49.194;12.526;2022-08-21T00:40:14;18.30;99.90
18141;DHT22;9196;49.194;12.526;2022-08-21T00:42:42;18.30;99.90
18141;DHT22;9196;49.194;12.526;2022-08-21T00:45:10;18.20;99.90
18141;DHT22;9196;49.194;12.526;2022-08-21T00:47:37;18.20;99.90
18141;DHT22;9196;49.194;12.526;2022-08-21T00:50:07;18.30;99.90
18141;DHT22;9196;49.194;12.526;2022-08-21T00:52:36;18.30;99.90
18141;DHT22;9196;49.194;12.526;2022-08-21T00:55:05;18.30;99.90
18141;DHT22;9196;49.194;12.526;2022-08-21T00:57:36;18.20;99.90
18141;DHT22;9196;49.194;12.526;2022-08-21T01:00:09;18.20;99.90
18141;DHT22;9196;49.194;12.526;2022-08-21T01:02:37;18.20;99.90
18141;DHT22;9196;49.194;12.526;2022-08-21T01:05:06;18.20;99.90
18141;DHT22;9196;49.194;12.526;2022-08-21T01:07:33;18.30;99.90
18141;DHT22;9196;49.194;12.526;2022-08-21T01:10:00;18.20;99.90
18141;DHT22;9196;49.194;12.526;2022-08-21T01:12:27;18.20;99.90
18141;DHT22;9196;49.194;12.526;2022-08-21T01:14:54;18.20;99.90
18141;DHT22;9196;49.194;12.526;2022-08-21T01:17:21;18.10;99.90
18141;DHT22;9196;49.194;12.526;2022-08-21T01:19:48;18.10;99.90
18141;DHT22;9196;49.194;12.526;2022-08-21T01:22:17;18.10;99.90
18141;DHT22;9196;49.194;12.526;2022-08-21T01:24:44;18.10;99.90
18141;DHT22;9196;49.194;12.526;2022-08-21T01:27:11;18.10;99.90
18141;DHT22;9196;49.194;12.526;2022-08-21T01:29:42;18.10;99.90
18141;DHT22;9196;49.194;12.526;2022-08-21T01:32:14;18.10;99.90
18141;DHT22;9196;49.194;12.526;2022-08-21T01:34:43;18.10;99.90
18141;DHT22;9196;49.194;12.526;2022-08-21T01:37:11;18.10;99.90
18141;DHT22;9196;49.194;12.526;2022-08-21T01:39:40;18.10;99.90
18141;DHT22;9196;49.194;12.526;2022-08-21T01:42:08;18.10;99.90
18141;DHT22;9196;49.194;12.526;2022-08-21T01:44:35;18.10;99.90
18141;DHT22;9196;49.194;12.526;2022-08-21T01:47:04;18.00;99.90
18141;DHT22;9196;49.194;12.526;2022-08-21T01:49:31;18.00;99.90
18141;DHT22;9196;49.194;12.526;2022-08-21T01:51:58;18.10;99.90
18141;DHT22;9196;49.194;12.526;2022-08-21T01:54:25;18.10;99.90
18141;DHT22;9196;49.194;12.526;2022-08-21T01:56:54;18.10;99.90
18141;DHT22;9196;49.194;12.526;2022-08-21T01:59:22;18.10;99.90
18141;DHT22;9196;49.194;12.526;2022-08-21T02:01:49;18.00;99.90
18141;DHT22;9196;49.194;12.526;2022-08-21T02:04:16;17.90;99.90
18141;DHT22;9196;49.194;12.526;2022-08-21T02:06:43;18.00;99.90
18141;DHT22;9196;49.194;12.526;2022-08-21T02:09:11;18.00;99.90
18141;DHT22;9196;49.194;12.526;2022-08-21T02:11:40;17.90;99.90
18141;DHT22;9196;49.194;12.526;2022-08-21T02:14:08;17.90;99.90
18141;DHT22;9196;49.194;12.526;2022-08-21T02:16:37;17.90;99.90
18141;DHT22;9196;49.194;12.526;2022-08-21T02:19:04;17.90;99.90
18141;DHT22;9196;49.194;12.526;2022-08-21T02:21:31;17.90;99.90
18141;DHT22;9196;49.194;12.526;2022-08-21T02:23:58;17.90;99.90
18141;DHT22;9196;49.194;12.526;2022-08-21T02:26:25;17.90;99.90
18141;DHT22;9196;49.194;12.526;2022-08-21T02:28:52;17.90;99.90
18141;DHT22;9196;49.194;12.526;2022-08-21T02:31:21;17.90;99.90
18141;DHT22;9196;49.194;12.526;2022-08-21T02:33:48;17.90;99.90
18141;DHT22;9196;49.194;12.526;2022-08-21T02:36:14;17.80;99.90
18141;DHT22;9196;49.194;12.526;2022-08-21T02:38:42;17.90;99.90
18141;DHT22;9196;49.194;12.526;2022-08-21T02:41:10;17.80;99.90
18141;DHT22;9196;49.194;12.526;2022-08-21T02:43:37;17.80;99.90
18141;DHT22;9196;49.194;12.526;2022-08-21T02:46:06;17.90;99.90
18141;DHT22;9196;49.194;12.526;2022-08-21T02:48:34;17.80;99.90
18141;DHT22;9196;49.194;12.526;2022-08-21T02:51:04;17.90;99.90
18141;DHT22;9196;49.194;12.526;2022-08-21T02:53:31;17.90;99.90
18141;DHT22;9196;49.194;12.526;2022-08-21T02:56:00;17.90;99.90
18141;DHT22;9196;49.194;12.526;2022-08-21T02:58:30;17.90;99.90
18141;DHT22;9196;49.194;12.526;2022-08-21T03:00:57;17.80;99.90
18141;DHT22;9196;49.194;12.526;2022-08-21T03:03:25;17.80;99.90
18141;DHT22;9196;49.194;12.526;2022-08-21T03:05:54;17.80;99.90
18141;DHT22;9196;49.194;12.526;2022-08-21T03:08:22;17.80;99.90
18141;DHT22;9196;49.194;12.526;2022-08-21T03:10:51;17.80;99.90
18141;DHT22;9196;49.194;12.526;2022-08-21T03:13:19;17.80;99.90
18141;DHT22;9196;49.194;12.526;2022-08-21T03:15:47;17.80;99.90
18141;DHT22;9196;49.194;12.526;2022-08-21T03:18:15;17.80;99.90
18141;DHT22;9196;49.194;12.526;2022-08-21T03:20:43;17.70;99.90
18141;DHT22;9196;49.194;12.526;2022-08-21T03:23:12;17.70;99.90
18141;DHT22;9196;49.194;12.526;2022-08-21T03:25:39;17.70;99.90
18141;DHT22;9196;49.194;12.526;2022-08-21T03:28:08;17.60;99.90
18141;DHT22;9196;49.194;12.526;2022-08-21T03:30:35;17.60;99.90
18141;DHT22;9196;49.194;12.526;2022-08-21T03:33:02;17.60;99.90
18141;DHT22;9196;49.194;12.526;2022-08-21T03:35:29;17.60;99.90
18141;DHT22;9196;49.194;12.526;2022-08-21T03:37:56;17.60;99.90
18141;DHT22;9196;49.194;12.526;2022-08-21T03:40:25;17.70;99.90
18141;DHT22;9196;49.194;12.526;2022-08-21T03:42:52;17.70;99.90
18141;DHT22;9196;49.194;12.526;2022-08-21T03:45:20;17.70;99.90
18141;DHT22;9196;49.194;12.526;2022-08-21T03:47:52;17.70;99.90
18141;DHT22;9196;49.194;12.526;2022-08-21T03:50:21;17.60;99.90
18141;DHT22;9196;49.194;12.526;2022-08-21T03:52:48;17.60;99.90
18141;DHT22;9196;49.194;12.526;2022-08-21T03:55:15;17.70;99.90
18141;DHT22;9196;49.194;12.526;2022-08-21T03:57:44;17.60;99.90
18141;DHT22;9196;49.194;12.526;2022-08-21T04:00:12;17.70;99.90
18141;DHT22;9196;49.194;12.526;2022-08-21T04:02:40;17.70;99.90
18141;DHT22;9196;49.194;12.526;2022-08-21T04:05:08;17.60;99.90
18141;DHT22;9196;49.194;12.526;2022-08-21T04:07:34;17.60;99.90
18141;DHT22;9196;49.194;12.526;2022-08-21T04:10:03;17.60;99.90
18141;DHT22;9196;49.194;12.526;2022-08-21T04:12:30;17.50;99.90
18141;DHT22;9196;49.194;12.526;2022-08-21T04:14:58;17.50;99.90
18141;DHT22;9196;49.194;12.526;2022-08-21T04:17:27;17.60;99.90
18141;DHT22;9196;49.194;12.526;2022-08-21T04:19:53;17.60;99.90
18141;DHT22;9196;49.194;12.526;2022-08-21T04:22:20;17.60;99.90
18141;DHT22;9196;49.194;12.526;2022-08-21T04:24:47;17.70;99.90
18141;DHT22;9196;49.194;12.526;2022-08-21T04:27:15;17.70;99.90
18141;DHT22;9196;49.194;12.526;2022-08-21T04:29:42;17.70;99.90
18141;DHT22;9196;49.194;12.526;2022-08-21T04:32:10;17.70;99.90
18141;DHT22;9196;49.194;12.526;2022-08-21T04:34:36;17.60;99.90
18141;DHT22;9196;49.194;12.526;2022-08-21T04:37:03;17.60;99.90
18141;DHT22;9196;49.194;12.526;2022-08-21T04:39:30;17.60;99.90
18141;DHT22;9196;49.194;12.526;2022-08-21T04:41:57;17.70;99.90
18141;DHT22;9196;49.194;12.526;2022-08-21T04:44:24;17.70;99.90
18141;DHT22;9196;49.194;12.526;2022-08-21T04:46:50;17.80;99.90
18141;DHT22;9196;49.194;12.526;2022-08-21T04:49:18;17.80;99.90
18141;DHT22;9196;49.194;12.526;2022-08-21T04:51:45;17.70;99.90
18141;DHT22;9196;49.194;12.526;2022-08-21T04:54:15;17.70;99.90
18141;DHT22;9196;49.194;12.526;2022-08-21T04:56:46;17.70;99.90
18141;DHT22;9196;49.194;12.526;2022-08-21T04:59:18;17.60;99.90
18141;DHT22;9196;49.194;12.526;2022-08-21T05:01:47;17.60;99.90
18141;DHT22;9196;49.194;12.526;2022-08-21T05:04:16;17.70;99.90
18141;DHT22;9196;49.194;12.526;2022-08-21T05:06:47;17.70;99.90
18141;DHT22;9196;49.194;12.526;2022-08-21T05:09:16;17.80;99.90
18141;DHT22;9196;49.194;12.526;2022-08-21T05:11:43;17.80;99.90
18141;DHT22;9196;49.194;12.526;2022-08-21T05:14:10;17.90;99.90
18141;DHT22;9196;49.194;12.526;2022-08-21T05:16:37;17.90;99.90
18141;DHT22;9196;49.194;12.526;2022-08-21T05:19:05;17.80;99.90
18141;DHT22;9196;49.194;12.526;2022-08-21T05:21:32;17.80;99.90
18141;DHT22;9196;49.194;12.526;2022-08-21T05:24:01;17.60;99.90
18141;DHT22;9196;49.194;12.526;2022-08-21T05:26:27;17.60;99.90
18141;DHT22;9196;49.194;12.526;2022-08-21T05:28:55;17.60;99.90
18141;DHT22;9196;49.194;12.526;2022-08-21T05:31:22;17.60;99.90
18141;DHT22;9196;49.194;12.526;2022-08-21T05:33:49;17.70;99.90
18141;DHT22;9196;49.194;12.526;2022-08-21T05:36:16;17.70;99.90
18141;DHT22;9196;49.194;12.526;2022-08-21T05:38:43;17.70;99.90
18141;DHT22;9196;49.194;12.526;2022-08-21T05:41:11;17.70;99.90
18141;DHT22;9196;49.194;12.526;2022-08-21T05:43:38;17.80;99.90
18141;DHT22;9196;49.194;12.526;2022-08-21T05:46:06;17.90;99.90
18141;DHT22;9196;49.194;12.526;2022-08-21T05:48:34;17.90;99.90
18141;DHT22;9196;49.194;12.526;2022-08-21T05:51:04;17.90;99.90
18141;DHT22;9196;49.194;12.526;2022-08-21T05:53:32;18.00;99.90
18141;DHT22;9196;49.194;12.526;2022-08-21T05:55:58;17.90;99.90
18141;DHT22;9196;49.194;12.526;2022-08-21T05:58:27;18.00;99.90
18141;DHT22;9196;49.194;12.526;2022-08-21T06:00:54;18.00;99.90
18141;DHT22;9196;49.194;12.526;2022-08-21T06:03:24;17.90;99.90
18141;DHT22;9196;49.194;12.526;2022-08-21T06:05:51;18.00;99.90
18141;DHT22;9196;49.194;12.526;2022-08-21T06:08:18;17.90;99.90
18141;DHT22;9196;49.194;12.526;2022-08-21T06:10:47;17.90;99.90
18141;DHT22;9196;49.194;12.526;2022-08-21T06:13:14;18.00;99.90
18141;DHT22;9196;49.194;12.526;2022-08-21T06:15:43;18.00;99.90
18141;DHT22;9196;49.194;12.526;2022-08-21T06:18:10;18.10;99.90
18141;DHT22;9196;49.194;12.526;2022-08-21T06:20:37;18.10;99.90
18141;DHT22;9196;49.194;12.526;2022-08-21T06:23:04;18.20;99.90
18141;DHT22;9196;49.194;12.526;2022-08-21T06:25:31;18.20;99.90
18141;DHT22;9196;49.194;12.526;2022-08-21T06:28:02;18.20;99.90
18141;DHT22;9196;49.194;12.526;2022-08-21T06:30:29;18.10;99.90
18141;DHT22;9196;49.194;12.526;2022-08-21T06:32:57;18.20;99.90
18141;DHT22;9196;49.194;12.526;2022-08-21T06:35:24;18.20;99.90
18141;DHT22;9196;49.194;12.526;2022-08-21T06:37:51;18.20;99.90
18141;DHT22;9196;49.194;12.526;2022-08-21T06:40:18;18.30;99.90
18141;DHT22;9196;49.194;12.526;2022-08-21T06:42:44;18.40;99.90
18141;DHT22;9196;49.194;12.526;2022-08-21T06:45:12;18.40;99.90
18141;DHT22;9196;49.194;12.526;2022-08-21T06:47:39;18.40;99.90
18141;DHT22;9196;49.194;12.526;2022-08-21T06:50:08;18.50;99.90
18141;DHT22;9196;49.194;12.526;2022-08-21T06:52:35;18.50;99.90
18141;DHT22;9196;49.194;12.526;2022-08-21T06:55:04;18.50;99.90
18141;DHT22;9196;49.194;12.526;2022-08-21T06:57:31;18.70;99.90
18141;DHT22;9196;49.194;12.526;2022-08-21T06:59:58;18.70;99.90
18141;DHT22;9196;49.194;12.526;2022-08-21T07:02:25;18.80;99.90
18141;DHT22;9196;49.194;12.526;2022-08-21T07:04:52;18.90;99.90
18141;DHT22;9196;49.194;12.526;2022-08-21T07:07:20;19.00;99.90
18141;DHT22;9196;49.194;12.526;2022-08-21T07:09:47;19.10;99.90
18141;DHT22;9196;49.194;12.526;2022-08-21T07:12:14;19.10;99.90
18141;DHT22;9196;49.194;12.526;2022-08-21T07:14:41;19.10;99.90
18141;DHT22;9196;49.194;12.526;2022-08-21T07:17:08;19.00;99.90
18141;DHT22;9196;49.194;12.526;2022-08-21T07:19:34;19.00;99.90
18141;DHT22;9196;49.194;12.526;2022-08-21T07:22:03;18.90;99.90
18141;DHT22;9196;49.194;12.526;2022-08-21T07:24:31;19.00;99.90
18141;DHT22;9196;49.194;12.526;2022-08-21T07:26:58;19.00;99.90
18141;DHT22;9196;49.194;12.526;2022-08-21T07:29:24;19.00;99.90
18141;DHT22;9196;49.194;12.526;2022-08-21T07:31:51;19.00;99.90
18141;DHT22;9196;49.194;12.526;2022-08-21T07:34:18;19.00;99.90
18141;DHT22;9196;49.194;12.526;2022-08-21T07:36:45;19.00;99.90
18141;DHT22;9196;49.194;12.526;2022-08-21T07:39:12;19.00;99.90
18141;DHT22;9196;49.194;12.526;2022-08-21T07:41:40;19.10;99.90
18141;DHT22;9196;49.194;12.526;2022-08-21T07:44:06;19.10;99.90
18141;DHT22;9196;49.194;12.526;2022-08-21T07:46:33;19.20;99.90
18141;DHT22;9196;49.194;12.526;2022-08-21T07:49:00;19.20;99.90
18141;DHT22;9196;49.194;12.526;2022-08-21T07:51:28;19.20;99.90
18141;DHT22;9196;49.194;12.526;2022-08-21T07:53:57;19.20;99.90
18141;DHT22;9196;49.194;12.526;2022-08-21T07:56:24;19.20;99.90
18141;DHT22;9196;49.194;12.526;2022-08-21T07:58:52;19.30;99.90
18141;DHT22;9196;49.194;12.526;2022-08-21T08:01:19;19.40;99.90
18141;DHT22;9196;49.194;12.526;2022-08-21T08:03:46;19.50;99.90
18141;DHT22;9196;49.194;12.526;2022-08-21T08:06:13;19.50;99.90
18141;DHT22;9196;49.194;12.526;2022-08-21T08:08:42;19.60;99.90
18141;DHT22;9196;49.194;12.526;2022-08-21T08:11:09;19.60;99.90
18141;DHT22;9196;49.194;12.526;2022-08-21T08:13:39;19.50;99.90
18141;DHT22;9196;49.194;12.526;2022-08-21T08:16:07;19.60;99.90
18141;DHT22;9196;49.194;12.526;2022-08-21T08:18:34;19.60;99.90
18141;DHT22;9196;49.194;12.526;2022-08-21T08:21:02;19.70;99.90
18141;DHT22;9196;49.194;12.526;2022-08-21T08:23:28;19.80;99.90
18141;DHT22;9196;49.194;12.526;2022-08-21T08:25:56;19.90;99.90
18141;DHT22;9196;49.194;12.526;2022-08-21T08:28:22;20.00;99.90
18141;DHT22;9196;49.194;12.526;2022-08-21T08:30:49;20.00;99.90
18141;DHT22;9196;49.194;12.526;2022-08-21T08:33:17;20.30;99.90
18141;DHT22;9196;49.194;12.526;2022-08-21T08:35:46;20.40;99.90
18141;DHT22;9196;49.194;12.526;2022-08-21T08:38:14;20.40;99.90
18141;DHT22;9196;49.194;12.526;2022-08-21T08:40:49;20.40;99.90
18141;DHT22;9196;49.194;12.526;2022-08-21T08:43:18;20.50;99.90
18141;DHT22;9196;49.194;12.526;2022-08-21T08:45:49;20.60;99.90
18141;DHT22;9196;49.194;12.526;2022-08-21T08:48:31;20.70;99.90
18141;DHT22;9196;49.194;12.526;2022-08-21T08:51:02;20.80;99.90
18141;DHT22;9196;49.194;12.526;2022-08-21T08:53:33;20.90;99.90
18141;DHT22;9196;49.194;12.526;2022-08-21T08:56:04;21.00;99.90
18141;DHT22;9196;49.194;12.526;2022-08-21T08:58:36;21.00;99.90
18141;DHT22;9196;49.194;12.526;2022-08-21T09:01:07;20.80;99.90
18141;DHT22;9196;49.194;12.526;2022-08-21T09:03:39;20.80;99.90
18141;DHT22;9196;49.194;12.526;2022-08-21T09:06:13;20.60;99.90
18141;DHT22;9196;49.194;12.526;2022-08-21T09:08:52;20.60;99.90
18141;DHT22;9196;49.194;12.526;2022-08-21T09:11:27;20.70;99.90
18141;DHT22;9196;49.194;12.526;2022-08-21T09:14:00;20.80;99.90
18141;DHT22;9196;49.194;12.526;2022-08-21T09:16:39;20.80;99.90
18141;DHT22;9196;49.194;12.526;2022-08-21T09:19:21;20.80;99.90
18141;DHT22;9196;49.194;12.526;2022-08-21T09:21:58;20.90;99.90
18141;DHT22;9196;49.194;12.526;2022-08-21T09:24:32;21.10;99.90
18141;DHT22;9196;49.194;12.526;2022-08-21T09:27:09;21.20;99.90
18141;DHT22;9196;49.194;12.526;2022-08-21T09:29:38;21.30;99.90
18141;DHT22;9196;49.194;12.526;2022-08-21T09:32:10;21.40;99.90
18141;DHT22;9196;49.194;12.526;2022-08-21T09:34:39;21.60;99.90
18141;DHT22;9196;49.194;12.526;2022-08-21T09:37:16;21.90;99.90
18141;DHT22;9196;49.194;12.526;2022-08-21T09:39:43;22.00;99.90
18141;DHT22;9196;49.194;12.526;2022-08-21T09:42:11;21.90;99.90
18141;DHT22;9196;49.194;12.526;2022-08-21T09:44:47;22.00;99.90
18141;DHT22;9196;49.194;12.526;2022-08-21T09:47:13;22.10;99.90
18141;DHT22;9196;49.194;12.526;2022-08-21T09:49:47;22.20;99.90
18141;DHT22;9196;49.194;12.526;2022-08-21T09:52:18;22.30;99.90
18141;DHT22;9196;49.194;12.526;2022-08-21T09:54:51;22.20;99.90
18141;DHT22;9196;49.194;12.526;2022-08-21T09:57:23;22.10;99.90
18141;DHT22;9196;49.194;12.526;2022-08-21T10:00:10;22.00;99.90
18141;DHT22;9196;49.194;12.526;2022-08-21T10:02:41;22.20;99.90
18141;DHT22;9196;49.194;12.526;2022-08-21T10:05:18;22.30;99.90
18141;DHT22;9196;49.194;12.526;2022-08-21T10:07:45;22.30;99.90
18141;DHT22;9196;49.194;12.526;2022-08-21T10:10:16;22.10;99.90
18141;DHT22;9196;49.194;12.526;2022-08-21T10:12:51;22.20;99.90
18141;DHT22;9196;49.194;12.526;2022-08-21T10:15:24;22.30;99.90
18141;DHT22;9196;49.194;12.526;2022-08-21T10:18:08;22.30;99.90
18141;DHT22;9196;49.194;12.526;2022-08-21T10:20:45;22.20;99.90
18141;DHT22;9196;49.194;12.526;2022-08-21T10:23:38;22.30;99.90
18141;DHT22;9196;49.194;12.526;2022-08-21T10:26:24;22.20;99.90
18141;DHT22;9196;49.194;12.526;2022-08-21T10:29:01;22.30;99.90
18141;DHT22;9196;49.194;12.526;2022-08-21T10:31:32;22.60;99.90
18141;DHT22;9196;49.194;12.526;2022-08-21T10:34:18;22.80;99.90
18141;DHT22;9196;49.194;12.526;2022-08-21T10:36:58;22.80;99.90
18141;DHT22;9196;49.194;12.526;2022-08-21T10:39:33;22.80;99.90
18141;DHT22;9196;49.194;12.526;2022-08-21T10:42:13;22.70;99.90
18141;DHT22;9196;49.194;12.526;2022-08-21T10:44:55;22.50;99.90
18141;DHT22;9196;49.194;12.526;2022-08-21T10:47:28;22.60;99.90
18141;DHT22;9196;49.194;12.526;2022-08-21T10:50:03;22.80;99.90
18141;DHT22;9196;49.194;12.526;2022-08-21T10:52:48;23.10;99.90
18141;DHT22;9196;49.194;12.526;2022-08-21T10:55:20;23.40;99.90
18141;DHT22;9196;49.194;12.526;2022-08-21T10:57:51;23.50;99.90
18141;DHT22;9196;49.194;12.526;2022-08-21T11:00:22;23.40;99.90
18141;DHT22;9196;49.194;12.526;2022-08-21T11:02:55;23.10;99.90
18141;DHT22;9196;49.194;12.526;2022-08-21T11:05:27;23.10;99.90
18141;DHT22;9196;49.194;12.526;2022-08-21T11:08:02;23.30;99.90
18141;DHT22;9196;49.194;12.526;2022-08-21T11:10:33;23.40;99.90
18141;DHT22;9196;49.194;12.526;2022-08-21T11:13:06;23.40;99.90
18141;DHT22;9196;49.194;12.526;2022-08-21T11:15:41;23.40;99.90
18141;DHT22;9196;49.194;12.526;2022-08-21T11:18:17;23.50;99.90
18141;DHT22;9196;49.194;12.526;2022-08-21T11:20:49;23.50;99.90
18141;DHT22;9196;49.194;12.526;2022-08-21T11:23:23;23.60;99.90
18141;DHT22;9196;49.194;12.526;2022-08-21T11:25:55;23.80;99.90
18141;DHT22;9196;49.194;12.526;2022-08-21T11:28:28;23.80;99.90
18141;DHT22;9196;49.194;12.526;2022-08-21T11:31:02;23.80;99.90
18141;DHT22;9196;49.194;12.526;2022-08-21T11:33:47;23.90;99.90
18141;DHT22;9196;49.194;12.526;2022-08-21T11:36:32;24.10;99.90
18141;DHT22;9196;49.194;12.526;2022-08-21T11:39:15;23.70;99.90
18141;DHT22;9196;49.194;12.526;2022-08-21T11:41:46;23.80;99.90
18141;DHT22;9196;49.194;12.526;2022-08-21T11:44:21;24.00;99.90
18141;DHT22;9196;49.194;12.526;2022-08-21T11:46:56;23.90;99.90
18141;DHT22;9196;49.194;12.526;2022-08-21T11:49:33;24.10;99.90
18141;DHT22;9196;49.194;12.526;2022-08-21T11:52:08;24.30;99.90
18141;DHT22;9196;49.194;12.526;2022-08-21T11:54:43;24.40;99.90
18141;DHT22;9196;49.194;12.526;2022-08-21T11:57:16;24.60;99.90
18141;DHT22;9196;49.194;12.526;2022-08-21T11:59:48;24.70;99.90
18141;DHT22;9196;49.194;12.526;2022-08-21T12:02:19;24.90;99.90
18141;DHT22;9196;49.194;12.526;2022-08-21T12:04:48;25.00;99.90
18141;DHT22;9196;49.194;12.526;2022-08-21T12:07:27;25.00;99.90
18141;DHT22;9196;49.194;12.526;2022-08-21T12:09:58;24.90;99.90
18141;DHT22;9196;49.194;12.526;2022-08-21T12:12:28;24.80;99.90
18141;DHT22;9196;49.194;12.526;2022-08-21T12:15:24;24.60;99.90
18141;DHT22;9196;49.194;12.526;2022-08-21T12:17:55;25.00;99.90
18141;DHT22;9196;49.194;12.526;2022-08-21T12:20:37;25.10;99.90
18141;DHT22;9196;49.194;12.526;2022-08-21T12:23:16;24.80;99.90
18141;DHT22;9196;49.194;12.526;2022-08-21T12:25:47;24.90;99.90
18141;DHT22;9196;49.194;12.526;2022-08-21T12:28:26;25.10;99.90
18141;DHT22;9196;49.194;12.526;2022-08-21T12:30:53;24.90;99.90
18141;DHT22;9196;49.194;12.526;2022-08-21T12:33:25;24.90;99.90
18141;DHT22;9196;49.194;12.526;2022-08-21T12:36:01;24.80;99.80
18141;DHT22;9196;49.194;12.526;2022-08-21T12:38:29;24.70;99.90
18141;DHT22;9196;49.194;12.526;2022-08-21T12:41:02;24.30;99.90
18141;DHT22;9196;49.194;12.526;2022-08-21T12:43:33;24.40;99.90
18141;DHT22;9196;49.194;12.526;2022-08-21T12:46:02;24.60;99.90
18141;DHT22;9196;49.194;12.526;2022-08-21T12:48:35;25.10;99.90
18141;DHT22;9196;49.194;12.526;2022-08-21T12:51:09;25.50;98.80
18141;DHT22;9196;49.194;12.526;2022-08-21T12:53:42;25.70;98.30
18141;DHT22;9196;49.194;12.526;2022-08-21T12:56:14;25.80;96.60
18141;DHT22;9196;49.194;12.526;2022-08-21T12:58:46;26.00;96.70
18141;DHT22;9196;49.194;12.526;2022-08-21T13:03:44;26.80;95.80
18141;DHT22;9196;49.194;12.526;2022-08-21T13:06:15;26.80;94.60
18141;DHT22;9196;49.194;12.526;2022-08-21T13:08:43;26.90;94.90
18141;DHT22;9196;49.194;12.526;2022-08-21T13:11:16;27.10;92.30
18141;DHT22;9196;49.194;12.526;2022-08-21T13:13:48;27.10;91.70
18141;DHT22;9196;49.194;12.526;2022-08-21T13:16:19;27.20;91.50
18141;DHT22;9196;49.194;12.526;2022-08-21T13:18:54;27.30;90.90
18141;DHT22;9196;49.194;12.526;2022-08-21T13:21:26;27.40;92.30
18141;DHT22;9196;49.194;12.526;2022-08-21T13:23:53;27.00;91.40
18141;DHT22;9196;49.194;12.526;2022-08-21T13:26:22;26.90;91.50
18141;DHT22;9196;49.194;12.526;2022-08-21T13:28:49;27.10;92.90
18141;DHT22;9196;49.194;12.526;2022-08-21T13:31:19;27.40;90.50
18141;DHT22;9196;49.194;12.526;2022-08-21T13:33:48;27.40;91.30
18141;DHT22;9196;49.194;12.526;2022-08-21T13:36:20;27.60;91.60
18141;DHT22;9196;49.194;12.526;2022-08-21T13:38:48;27.90;88.70
18141;DHT22;9196;49.194;12.526;2022-08-21T13:41:22;27.90;89.80
18141;DHT22;9196;49.194;12.526;2022-08-21T13:43:59;27.70;90.00
18141;DHT22;9196;49.194;12.526;2022-08-21T13:46:29;27.70;86.10
18141;DHT22;9196;49.194;12.526;2022-08-21T13:48:59;27.20;83.80
18141;DHT22;9196;49.194;12.526;2022-08-21T13:51:26;27.30;88.10
18141;DHT22;9196;49.194;12.526;2022-08-21T13:53:54;27.50;86.90
18141;DHT22;9196;49.194;12.526;2022-08-21T13:56:24;27.60;86.70
18141;DHT22;9196;49.194;12.526;2022-08-21T13:58:53;27.20;81.70
18141;DHT22;9196;49.194;12.526;2022-08-21T14:01:25;27.20;84.80
18141;DHT22;9196;49.194;12.526;2022-08-21T14:03:55;27.60;83.30
18141;DHT22;9196;49.194;12.526;2022-08-21T14:06:27;28.00;84.50
18141;DHT22;9196;49.194;12.526;2022-08-21T14:08:57;28.20;77.80
18141;DHT22;9196;49.194;12.526;2022-08-21T14:11:26;28.30;80.70
18141;DHT22;9196;49.194;12.526;2022-08-21T14:13:58;28.20;76.90
18141;DHT22;9196;49.194;12.526;2022-08-21T14:16:28;28.30;74.40
18141;DHT22;9196;49.194;12.526;2022-08-21T14:19:09;28.40;77.60
18141;DHT22;9196;49.194;12.526;2022-08-21T14:21:39;28.70;74.50
18141;DHT22;9196;49.194;12.526;2022-08-21T14:24:09;28.80;75.00
18141;DHT22;9196;49.194;12.526;2022-08-21T14:26:46;28.70;73.40
18141;DHT22;9196;49.194;12.526;2022-08-21T14:29:16;28.90;77.30
18141;DHT22;9196;49.194;12.526;2022-08-21T14:31:49;29.10;75.40
18141;DHT22;9196;49.194;12.526;2022-08-21T14:34:17;29.30;74.50
18141;DHT22;9196;49.194;12.526;2022-08-21T14:36:44;29.40;73.50
18141;DHT22;9196;49.194;12.526;2022-08-21T14:39:12;29.50;73.10
18141;DHT22;9196;49.194;12.526;2022-08-21T14:41:41;29.60;71.90
18141;DHT22;9196;49.194;12.526;2022-08-21T14:44:08;29.50;71.00
18141;DHT22;9196;49.194;12.526;2022-08-21T14:46:36;29.50;71.00
18141;DHT22;9196;49.194;12.526;2022-08-21T14:49:03;28.90;71.10
18141;DHT22;9196;49.194;12.526;2022-08-21T14:51:30;28.80;71.00
18141;DHT22;9196;49.194;12.526;2022-08-21T14:53:57;29.00;72.60
18141;DHT22;9196;49.194;12.526;2022-08-21T14:56:24;29.10;71.00
18141;DHT22;9196;49.194;12.526;2022-08-21T14:58:53;29.10;71.20
18141;DHT22;9196;49.194;12.526;2022-08-21T15:01:22;29.20;70.90
18141;DHT22;9196;49.194;12.526;2022-08-21T15:03:49;28.90;68.50
18141;DHT22;9196;49.194;12.526;2022-08-21T15:06:18;28.40;69.00
18141;DHT22;9196;49.194;12.526;2022-08-21T15:08:46;28.10;71.60
18141;DHT22;9196;49.194;12.526;2022-08-21T15:11:19;27.90;70.60
18141;DHT22;9196;49.194;12.526;2022-08-21T15:13:46;27.80;72.60
18141;DHT22;9196;49.194;12.526;2022-08-21T15:16:15;27.90;74.20
18141;DHT22;9196;49.194;12.526;2022-08-21T15:18:41;27.80;75.00
18141;DHT22;9196;49.194;12.526;2022-08-21T15:21:08;27.80;73.20
18141;DHT22;9196;49.194;12.526;2022-08-21T15:23:35;27.70;74.20
18141;DHT22;9196;49.194;12.526;2022-08-21T15:26:03;27.50;73.10
18141;DHT22;9196;49.194;12.526;2022-08-21T15:28:30;27.60;73.00
18141;DHT22;9196;49.194;12.526;2022-08-21T15:30:59;27.70;72.20
18141;DHT22;9196;49.194;12.526;2022-08-21T15:33:27;27.70;73.40
18141;DHT22;9196;49.194;12.526;2022-08-21T15:35:54;27.50;71.40
18141;DHT22;9196;49.194;12.526;2022-08-21T15:38:21;27.70;73.90
18141;DHT22;9196;49.194;12.526;2022-08-21T15:40:48;27.70;71.00
18141;DHT22;9196;49.194;12.526;2022-08-21T15:43:22;27.80;69.80
18141;DHT22;9196;49.194;12.526;2022-08-21T15:45:49;27.90;70.40
18141;DHT22;9196;49.194;12.526;2022-08-21T15:48:16;28.00;67.90